Time;durP1;ratioP1;P1;durP2;ratioP2;P2;SDS_P1;SDS_P2;PMS_P1;PMS_P2;Temp;Humidity;BMP_temperature;BMP_pressure;BME280_temperature;BME280_humidity;BME280_pressure;Samples;Min_cycle;Max_cycle;Signal;HPM_P1;HPM_P2
2023/03/03 00:01:38;;;;;;;11.23;8.82;;;;;;;;;;5043462;28;20223;-51
2023/03/03 00:04:04;;;;;;;13.73;9.90;;;;;;;;;;5045630;28;20203;-51
2023/03/03 00:06:30;;;;;;;11.70;9.30;;;;;;;;;;5055671;28;20171;-51
2023/03/03 00:08:56;;;;;;;12.65;9.68;;;;;;;;;;5051324;28;20198;-51
2023/03/03 00:11:22;;;;;;;11.07;8.52;;;;;;;;;;5060888;28;20183;-51
2023/03/03 00:13:49;;;;;;;11.93;8.70;;;;;;;;;;5062657;28;20184;-51
2023/03/03 00:16:19;;;;;;;10.80;8.98;;;;;;;;;;5074982;28;20191;-52
2023/03/03 00:18:46;;;;;;;11.45;8.65;;;;;;;;;;5054113;28;20612;-52
2023/03/03 00:21:21;;;;;;;12.43;9.10;;;;;;;;;;5060675;28;20251;-51
2023/03/03 00:23:47;;;;;;;11.57;8.30;;;;;;;;;;5057222;28;20348;-52
2023/03/03 00:26:18;;;;;;;11.48;8.38;;;;;;;;;;5063208;28;20257;-52
2023/03/03 00:28:46;;;;;;;11.35;8.55;;;;;;;;;;5056999;28;20191;-51
2023/03/03 00:31:17;;;;;;;11.90;8.70;;;;;;;;;;5078055;28;20207;-52
2023/03/03 00:33:53;;;;;;;11.45;8.85;;;;;;;;;;5055648;28;20180;-50
2023/03/03 00:36:34;;;;;;;10.55;8.43;;;;;;;;;;5060909;28;20237;-51
2023/03/03 00:39:15;;;;;;;12.80;9.02;;;;;;;;;;5052282;28;20277;-52
2023/03/03 00:41:41;;;;;;;9.82;8.27;;;;;;;;;;5070568;28;20570;-52
2023/03/03 00:44:26;;;;;;;10.65;8.23;;;;;;;;;;5059323;28;20546;-52
2023/03/03 00:46:53;;;;;;;11.32;8.63;;;;;;;;;;5055390;28;20183;-51
2023/03/03 00:49:23;;;;;;;11.35;8.43;;;;;;;;;;5048803;28;20297;-52
2023/03/03 00:51:49;;;;;;;10.57;8.20;;;;;;;;;;5052526;28;20278;-52
2023/03/03 00:54:15;;;;;;;9.50;7.60;;;;;;;;;;5048415;28;20519;-52
2023/03/03 00:56:41;;;;;;;11.32;8.82;;;;;;;;;;5043205;28;20229;-52
2023/03/03 00:59:07;;;;;;;9.73;8.07;;;;;;;;;;5049433;28;20180;-52
2023/03/03 01:01:33;;;;;;;10.60;7.93;;;;;;;;;;5056669;28;20283;-51
2023/03/03 01:03:58;;;;;;;10.98;8.10;;;;;;;;;;5041592;28;20176;-52
2023/03/03 01:06:24;;;;;;;10.10;7.95;;;;;;;;;;5045719;28;20175;-52
2023/03/03 01:08:50;;;;;;;10.10;8.38;;;;;;;;;;5042599;28;20437;-51
2023/03/03 01:11:19;;;;;;;8.75;7.53;;;;;;;;;;5056081;28;20301;-50
2023/03/03 01:13:47;;;;;;;8.82;7.65;;;;;;;;;;5053020;28;20194;-52
2023/03/03 01:16:13;;;;;;;9.15;7.53;;;;;;;;;;5046132;28;20182;-52
2023/03/03 01:18:40;;;;;;;8.90;7.15;;;;;;;;;;5042181;28;20253;-51
2023/03/03 01:21:06;;;;;;;8.90;7.20;;;;;;;;;;5037267;28;20208;-51
2023/03/03 01:23:32;;;;;;;8.82;6.90;;;;;;;;;;5048693;28;20281;-51
2023/03/03 01:25:58;;;;;;;9.07;7.35;;;;;;;;;;5050245;28;20211;-51
2023/03/03 01:28:24;;;;;;;9.20;7.45;;;;;;;;;;5055166;28;20203;-51
2023/03/03 01:30:50;;;;;;;8.60;7.65;;;;;;;;;;5055088;28;20255;-52
2023/03/03 01:33:16;;;;;;;8.65;6.63;;;;;;;;;;5046067;28;20508;-51
2023/03/03 01:35:43;;;;;;;10.23;7.68;;;;;;;;;;5059648;28;20235;-52
2023/03/03 01:38:09;;;;;;;9.85;7.38;;;;;;;;;;5049135;28;20183;-51
2023/03/03 01:40:35;;;;;;;10.60;7.35;;;;;;;;;;5050532;28;20209;-51
2023/03/03 01:43:01;;;;;;;8.50;6.95;;;;;;;;;;5069158;28;20186;-52
2023/03/03 01:45:30;;;;;;;8.60;7.07;;;;;;;;;;5061958;28;20198;-51
2023/03/03 01:47:59;;;;;;;8.07;6.57;;;;;;;;;;5042801;28;20211;-51
2023/03/03 01:50:31;;;;;;;7.10;6.00;;;;;;;;;;5056361;28;20185;-52
2023/03/03 01:52:57;;;;;;;9.38;7.22;;;;;;;;;;5055117;28;20183;-51
2023/03/03 01:55:26;;;;;;;8.80;7.28;;;;;;;;;;5052625;28;20203;-52
2023/03/03 01:57:56;;;;;;;7.80;6.55;;;;;;;;;;5050066;28;20613;-51
2023/03/03 02:00:22;;;;;;;9.68;7.10;;;;;;;;;;5049001;28;20561;-51
2023/03/03 02:02:48;;;;;;;7.45;6.50;;;;;;;;;;5052603;28;20267;-51
2023/03/03 02:05:14;;;;;;;8.45;7.03;;;;;;;;;;5063416;28;20542;-52
2023/03/03 02:07:40;;;;;;;8.25;6.55;;;;;;;;;;5045905;28;20207;-51
2023/03/03 02:10:08;;;;;;;7.15;6.07;;;;;;;;;;5055508;28;20220;-51
2023/03/03 02:12:40;;;;;;;7.93;6.50;;;;;;;;;;5057384;28;20505;-52
2023/03/03 02:15:16;;;;;;;7.97;6.18;;;;;;;;;;5062492;28;20249;-51
2023/03/03 02:17:42;;;;;;;8.45;6.60;;;;;;;;;;5062990;28;20183;-51
2023/03/03 02:20:28;;;;;;;8.52;6.90;;;;;;;;;;5055951;28;20187;-51
2023/03/03 02:23:05;;;;;;;6.78;5.90;;;;;;;;;;5068455;28;20186;-52
2023/03/03 02:25:41;;;;;;;6.70;5.97;;;;;;;;;;5060878;28;20181;-51
2023/03/03 02:28:07;;;;;;;8.77;6.57;;;;;;;;;;5058729;28;20228;-51
2023/03/03 02:30:36;;;;;;;7.72;6.65;;;;;;;;;;5070900;28;20191;-57
2023/03/03 02:33:02;;;;;;;7.20;6.50;;;;;;;;;;5048268;28;20180;-51
2023/03/03 02:35:29;;;;;;;7.50;5.80;;;;;;;;;;5047516;28;20588;-50
2023/03/03 02:37:59;;;;;;;7.93;6.10;;;;;;;;;;5053228;28;20195;-51
2023/03/03 02:40:26;;;;;;;7.68;6.10;;;;;;;;;;5063407;28;20178;-51
2023/03/03 02:42:52;;;;;;;6.45;5.70;;;;;;;;;;5048475;28;20187;-51
2023/03/03 02:45:18;;;;;;;7.40;5.90;;;;;;;;;;5048873;28;20187;-51
2023/03/03 02:47:50;;;;;;;6.80;6.00;;;;;;;;;;5039584;28;20366;-51
2023/03/03 02:50:16;;;;;;;6.32;5.20;;;;;;;;;;5038431;28;20210;-51
2023/03/03 02:52:42;;;;;;;7.15;6.45;;;;;;;;;;5042396;28;20266;-51
2023/03/03 02:55:08;;;;;;;6.80;6.10;;;;;;;;;;5034971;28;20184;-51
2023/03/03 02:57:34;;;;;;;6.50;5.78;;;;;;;;;;5036448;28;20605;-51
2023/03/03 03:00:00;;;;;;;6.15;5.55;;;;;;;;;;5038241;28;20259;-51
2023/03/03 03:02:26;;;;;;;6.40;5.78;;;;;;;;;;5038054;28;20191;-51
2023/03/03 03:04:52;;;;;;;6.68;5.80;;;;;;;;;;5046304;28;20167;-51
2023/03/03 03:07:18;;;;;;;6.05;5.18;;;;;;;;;;5043533;28;20234;-51
2023/03/03 03:09:44;;;;;;;6.13;5.30;;;;;;;;;;5038623;28;20602;-51
2023/03/03 03:12:11;;;;;;;7.70;6.20;;;;;;;;;;5048881;28;20178;-51
2023/03/03 03:14:37;;;;;;;6.60;5.65;;;;;;;;;;5060751;28;20182;-51
2023/03/03 03:17:03;;;;;;;7.50;5.93;;;;;;;;;;5049523;28;20175;-51
2023/03/03 03:19:29;;;;;;;5.65;5.15;;;;;;;;;;5044020;28;20250;-52
2023/03/03 03:21:55;;;;;;;6.53;5.70;;;;;;;;;;5056677;28;20587;-51
2023/03/03 03:24:21;;;;;;;5.45;4.95;;;;;;;;;;5053107;28;20229;-52
2023/03/03 03:26:47;;;;;;;5.68;5.05;;;;;;;;;;5058755;28;20175;-51
2023/03/03 03:29:13;;;;;;;6.47;5.53;;;;;;;;;;5065398;28;20468;-52
2023/03/03 03:31:39;;;;;;;6.10;5.50;;;;;;;;;;5042816;28;20257;-51
2023/03/03 03:34:04;;;;;;;6.30;5.32;;;;;;;;;;5065661;28;20200;-51
2023/03/03 03:36:30;;;;;;;6.07;5.40;;;;;;;;;;5056039;28;20473;-51
2023/03/03 03:38:56;;;;;;;6.82;5.40;;;;;;;;;;5057326;28;20176;-51
2023/03/03 03:41:22;;;;;;;8.25;5.32;;;;;;;;;;5050088;28;20280;-52
2023/03/03 03:43:48;;;;;;;6.13;5.18;;;;;;;;;;5060467;28;20209;-51
2023/03/03 03:46:14;;;;;;;5.93;5.32;;;;;;;;;;5060499;28;20468;-51
2023/03/03 03:48:40;;;;;;;6.28;4.93;;;;;;;;;;5038561;28;20206;-51
2023/03/03 03:51:06;;;;;;;6.65;5.28;;;;;;;;;;5064165;28;20178;-50
2023/03/03 03:53:32;;;;;;;5.72;4.80;;;;;;;;;;5052480;28;20174;-51
2023/03/03 03:55:57;;;;;;;7.60;5.25;;;;;;;;;;5068651;28;20215;-51
2023/03/03 03:58:23;;;;;;;5.65;5.05;;;;;;;;;;5061652;28;20395;-51
2023/03/03 04:00:49;;;;;;;7.20;5.75;;;;;;;;;;5051690;28;20257;-51
2023/03/03 04:03:15;;;;;;;6.72;5.40;;;;;;;;;;5057854;28;20176;-52
2023/03/03 04:05:42;;;;;;;6.50;5.50;;;;;;;;;;5047807;28;21734;-51
2023/03/03 04:08:08;;;;;;;5.70;5.10;;;;;;;;;;5049427;28;20180;-52
2023/03/03 04:10:34;;;;;;;5.75;5.05;;;;;;;;;;5045981;28;20164;-51
2023/03/03 04:13:00;;;;;;;5.43;4.93;;;;;;;;;;5063992;28;20451;-51
2023/03/03 04:15:26;;;;;;;5.22;4.72;;;;;;;;;;5055736;28;20179;-51
2023/03/03 04:17:52;;;;;;;6.38;5.18;;;;;;;;;;5055310;28;20263;-51
2023/03/03 04:20:18;;;;;;;5.93;4.70;;;;;;;;;;5055312;28;20548;-51
2023/03/03 04:22:44;;;;;;;6.00;4.90;;;;;;;;;;5057513;28;20225;-52
2023/03/03 04:25:13;;;;;;;5.80;4.90;;;;;;;;;;5053799;28;20234;-51
2023/03/03 04:27:39;;;;;;;6.22;4.97;;;;;;;;;;5063099;28;20253;-51
2023/03/03 04:30:06;;;;;;;5.97;4.85;;;;;;;;;;5049097;28;20294;-51
2023/03/03 04:32:34;;;;;;;5.90;5.00;;;;;;;;;;5060769;28;20194;-51
2023/03/03 04:35:01;;;;;;;6.00;5.25;;;;;;;;;;5062034;28;20194;-51
2023/03/03 04:37:27;;;;;;;5.85;5.25;;;;;;;;;;5047773;28;20187;-51
2023/03/03 04:39:52;;;;;;;6.40;4.80;;;;;;;;;;5036984;28;20217;-51
2023/03/03 04:42:18;;;;;;;4.80;4.30;;;;;;;;;;5051838;28;20226;-52
2023/03/03 04:44:44;;;;;;;5.43;4.40;;;;;;;;;;5067414;28;20175;-51
2023/03/03 04:47:10;;;;;;;6.03;4.80;;;;;;;;;;5051875;28;20238;-51
2023/03/03 04:49:37;;;;;;;5.55;4.95;;;;;;;;;;5047231;28;20985;-51
2023/03/03 04:52:03;;;;;;;5.57;4.85;;;;;;;;;;5043716;28;20452;-51
2023/03/03 04:54:29;;;;;;;5.72;5.13;;;;;;;;;;5044641;28;20175;-51
2023/03/03 04:56:55;;;;;;;5.97;4.65;;;;;;;;;;5055441;28;20206;-52
2023/03/03 04:59:21;;;;;;;5.97;5.18;;;;;;;;;;5049072;28;20191;-51
2023/03/03 05:01:46;;;;;;;6.05;4.47;;;;;;;;;;5056507;28;20198;-51
2023/03/03 05:04:12;;;;;;;5.47;4.57;;;;;;;;;;5055045;28;20179;-52
2023/03/03 05:06:39;;;;;;;5.15;4.60;;;;;;;;;;5037667;28;20179;-51
2023/03/03 05:09:05;;;;;;;5.30;4.47;;;;;;;;;;5037206;28;20196;-51
2023/03/03 05:11:31;;;;;;;6.03;4.97;;;;;;;;;;5050491;28;20186;-51
2023/03/03 05:13:57;;;;;;;5.53;4.50;;;;;;;;;;5055720;28;20502;-51
2023/03/03 05:16:23;;;;;;;5.53;4.82;;;;;;;;;;5049339;28;20317;-52
2023/03/03 05:18:49;;;;;;;5.78;4.72;;;;;;;;;;5061626;28;20446;-51
2023/03/03 05:21:15;;;;;;;5.95;4.90;;;;;;;;;;5039764;28;20208;-52
2023/03/03 05:23:41;;;;;;;6.80;5.03;;;;;;;;;;5055304;28;20604;-51
2023/03/03 05:26:06;;;;;;;6.10;4.35;;;;;;;;;;5052075;28;20179;-51
2023/03/03 05:28:32;;;;;;;8.85;5.22;;;;;;;;;;5057639;28;20468;-52
2023/03/03 05:30:58;;;;;;;8.75;5.13;;;;;;;;;;5044046;28;20178;-52
2023/03/03 05:33:24;;;;;;;6.25;4.45;;;;;;;;;;5055702;28;20182;-52
2023/03/03 05:35:57;;;;;;;6.32;4.20;;;;;;;;;;5060372;28;20244;-51
2023/03/03 05:38:23;;;;;;;6.50;4.95;;;;;;;;;;5059388;28;20183;-51
2023/03/03 05:40:49;;;;;;;9.30;5.18;;;;;;;;;;5066394;28;20183;-51
2023/03/03 05:43:15;;;;;;;7.97;4.95;;;;;;;;;;5057192;28;20193;-50
2023/03/03 05:45:41;;;;;;;7.80;5.15;;;;;;;;;;5061032;28;20190;-51
2023/03/03 05:48:09;;;;;;;6.57;4.60;;;;;;;;;;5056588;28;20175;-51
2023/03/03 05:50:35;;;;;;;7.35;4.93;;;;;;;;;;5053990;28;20211;-50
2023/03/03 05:53:01;;;;;;;6.30;4.53;;;;;;;;;;5060680;28;20176;-51
2023/03/03 05:55:27;;;;;;;6.78;4.90;;;;;;;;;;5053892;28;20240;-51
2023/03/03 05:57:53;;;;;;;6.10;4.88;;;;;;;;;;5055809;28;20244;-51
2023/03/03 06:00:19;;;;;;;8.05;5.38;;;;;;;;;;5058269;28;20655;-52
2023/03/03 06:02:45;;;;;;;7.47;4.88;;;;;;;;;;5056913;28;20285;-52
2023/03/03 06:05:11;;;;;;;6.28;4.75;;;;;;;;;;5052891;28;20523;-51
2023/03/03 06:07:37;;;;;;;7.38;5.05;;;;;;;;;;5063550;28;20179;-51
2023/03/03 06:10:03;;;;;;;7.05;5.18;;;;;;;;;;5048556;28;20282;-51
2023/03/03 06:12:29;;;;;;;6.65;5.18;;;;;;;;;;5058465;28;20178;-51
2023/03/03 06:14:55;;;;;;;7.18;4.85;;;;;;;;;;5047880;28;20191;-52
2023/03/03 06:17:21;;;;;;;8.25;5.07;;;;;;;;;;5059012;28;20908;-52
2023/03/03 06:19:47;;;;;;;5.60;4.70;;;;;;;;;;5048345;28;20187;-51
2023/03/03 06:22:13;;;;;;;6.05;4.95;;;;;;;;;;5061397;28;20268;-51
2023/03/03 06:24:39;;;;;;;7.15;4.90;;;;;;;;;;5053142;28;20414;-51
2023/03/03 06:27:05;;;;;;;7.95;4.93;;;;;;;;;;5055497;28;20561;-51
2023/03/03 06:29:31;;;;;;;6.78;4.50;;;;;;;;;;5051454;28;20308;-52
2023/03/03 06:31:57;;;;;;;5.97;4.50;;;;;;;;;;5065783;28;20274;-51
2023/03/03 06:34:23;;;;;;;7.18;4.70;;;;;;;;;;5057124;28;20193;-51
2023/03/03 06:36:49;;;;;;;7.30;4.75;;;;;;;;;;5050949;28;20247;-51
2023/03/03 06:39:15;;;;;;;5.85;4.47;;;;;;;;;;5050944;28;20187;-51
2023/03/03 06:41:41;;;;;;;6.35;4.68;;;;;;;;;;5059194;28;20592;-51
2023/03/03 06:44:07;;;;;;;6.35;4.63;;;;;;;;;;5058982;28;20175;-51
2023/03/03 06:46:32;;;;;;;7.10;4.78;;;;;;;;;;5047624;28;20175;-50
2023/03/03 06:48:59;;;;;;;8.18;4.60;;;;;;;;;;5050811;28;20484;-52
2023/03/03 06:51:27;;;;;;;5.50;4.43;;;;;;;;;;5043291;28;20428;-51
2023/03/03 06:53:57;;;;;;;6.43;4.63;;;;;;;;;;5046732;28;20273;-51
2023/03/03 06:56:24;;;;;;;7.07;4.55;;;;;;;;;;5048728;28;20187;-51
2023/03/03 06:58:53;;;;;;;5.85;4.50;;;;;;;;;;5042746;28;20172;-51
2023/03/03 07:01:19;;;;;;;5.45;4.22;;;;;;;;;;5042673;28;20293;-51
2023/03/03 07:03:45;;;;;;;5.60;4.43;;;;;;;;;;5041078;28;20250;-50
2023/03/03 07:06:29;;;;;;;6.38;4.57;;;;;;;;;;5046761;28;20190;-50
2023/03/03 07:08:56;;;;;;;6.28;4.40;;;;;;;;;;5034038;28;20186;-51
2023/03/03 07:11:23;;;;;;;5.57;4.20;;;;;;;;;;5047951;28;20190;-50
2023/03/03 07:13:53;;;;;;;5.18;3.90;;;;;;;;;;5040900;28;20188;-51
2023/03/03 07:16:24;;;;;;;6.63;4.80;;;;;;;;;;5048339;28;20742;-51
2023/03/03 07:18:51;;;;;;;5.10;4.00;;;;;;;;;;5038872;28;20434;-51
2023/03/03 07:21:17;;;;;;;5.03;3.80;;;;;;;;;;5040007;28;20578;-51
2023/03/03 07:23:44;;;;;;;5.57;4.10;;;;;;;;;;5047403;28;20185;-51
2023/03/03 07:26:14;;;;;;;4.55;4.10;;;;;;;;;;5053427;28;20568;-51
2023/03/03 07:28:41;;;;;;;7.20;4.03;;;;;;;;;;5038917;28;20217;-51
2023/03/03 07:31:22;;;;;;;4.80;4.30;;;;;;;;;;5045941;28;20465;-51
2023/03/03 07:33:48;;;;;;;6.65;4.30;;;;;;;;;;5044425;28;20221;-51
2023/03/03 07:36:26;;;;;;;5.10;3.72;;;;;;;;;;5038600;28;20187;-51
2023/03/03 07:38:53;;;;;;;7.13;4.00;;;;;;;;;;5038930;28;20202;-51
2023/03/03 07:41:22;;;;;;;5.32;3.75;;;;;;;;;;5054211;28;20210;-52
2023/03/03 07:43:53;;;;;;;6.10;3.75;;;;;;;;;;5048763;28;20645;-51
2023/03/03 07:46:30;;;;;;;6.72;4.05;;;;;;;;;;5042628;28;20176;-52
2023/03/03 07:48:57;;;;;;;5.90;4.05;;;;;;;;;;5043393;28;20183;-51
2023/03/03 07:51:35;;;;;;;4.85;3.97;;;;;;;;;;5048315;28;20626;-52
2023/03/03 07:54:17;;;;;;;5.55;4.32;;;;;;;;;;5042442;28;20183;-50
2023/03/03 07:56:43;;;;;;;4.20;3.78;;;;;;;;;;5046176;28;20479;-51
2023/03/03 07:59:19;;;;;;;5.53;4.15;;;;;;;;;;5052150;28;20175;-50
2023/03/03 08:01:47;;;;;;;3.92;3.38;;;;;;;;;;5059820;28;20447;-51
2023/03/03 08:04:16;;;;;;;6.95;4.20;;;;;;;;;;5045972;28;20171;-51
2023/03/03 08:06:44;;;;;;;6.03;3.78;;;;;;;;;;5043505;28;20543;-51
2023/03/03 08:09:10;;;;;;;7.32;3.80;;;;;;;;;;5042758;28;20637;-52
2023/03/03 08:11:59;;;;;;;4.45;3.60;;;;;;;;;;5052489;28;20182;-51
2023/03/03 08:14:30;;;;;;;3.80;3.40;;;;;;;;;;5053552;28;20206;-52
2023/03/03 08:16:56;;;;;;;5.88;3.80;;;;;;;;;;5043852;28;20220;-52
2023/03/03 08:19:23;;;;;;;4.90;3.95;;;;;;;;;;5038228;28;20183;-51
2023/03/03 08:21:49;;;;;;;5.38;3.92;;;;;;;;;;5047299;28;20213;-51
2023/03/03 08:24:14;;;;;;;5.13;3.78;;;;;;;;;;5057833;28;20186;-51
2023/03/03 08:26:40;;;;;;;5.10;3.88;;;;;;;;;;5065473;28;20554;-51
2023/03/03 08:29:06;;;;;;;4.25;3.50;;;;;;;;;;5065010;28;20623;-52
2023/03/03 08:31:32;;;;;;;4.55;3.83;;;;;;;;;;5063960;28;20183;-51
2023/03/03 08:33:59;;;;;;;4.45;3.70;;;;;;;;;;5060861;28;20183;-52
2023/03/03 08:36:25;;;;;;;4.43;3.78;;;;;;;;;;5071556;28;20183;-51
2023/03/03 08:38:50;;;;;;;4.45;3.80;;;;;;;;;;5069573;28;20336;-52
2023/03/03 08:41:16;;;;;;;4.78;4.18;;;;;;;;;;5069892;28;20214;-51
2023/03/03 08:43:44;;;;;;;5.00;3.75;;;;;;;;;;5056585;28;20206;-52
2023/03/03 08:46:10;;;;;;;4.75;3.83;;;;;;;;;;5056220;28;20259;-51
2023/03/03 08:48:36;;;;;;;4.35;3.95;;;;;;;;;;5049306;28;20175;-52
2023/03/03 08:51:03;;;;;;;4.60;3.63;;;;;;;;;;5062592;28;20183;-52
2023/03/03 08:53:29;;;;;;;4.60;3.80;;;;;;;;;;5054174;28;20202;-52
2023/03/03 08:55:55;;;;;;;4.32;3.83;;;;;;;;;;5051374;28;20167;-52
2023/03/03 08:58:21;;;;;;;5.13;4.00;;;;;;;;;;5047026;28;20176;-51
2023/03/03 09:00:47;;;;;;;4.43;3.53;;;;;;;;;;5041708;28;20175;-51
2023/03/03 09:03:13;;;;;;;4.78;3.95;;;;;;;;;;5048678;28;20171;-51
2023/03/03 09:05:39;;;;;;;5.38;3.97;;;;;;;;;;5057338;28;20171;-51
2023/03/03 09:08:06;;;;;;;4.63;3.88;;;;;;;;;;5056104;28;20202;-51
2023/03/03 09:10:33;;;;;;;5.22;3.92;;;;;;;;;;5055509;28;20179;-51
2023/03/03 09:13:02;;;;;;;4.45;3.70;;;;;;;;;;5060926;28;20209;-52
2023/03/03 09:15:29;;;;;;;5.22;3.83;;;;;;;;;;5073608;28;20205;-51
2023/03/03 09:18:14;;;;;;;6.45;4.53;;;;;;;;;;5051857;28;20543;-51
2023/03/03 09:20:44;;;;;;;6.05;4.15;;;;;;;;;;5052902;28;20195;-51
2023/03/03 09:23:23;;;;;;;6.28;4.20;;;;;;;;;;5056971;28;20206;-51
2023/03/03 09:25:50;;;;;;;5.22;3.92;;;;;;;;;;5067861;28;20226;-52
2023/03/03 09:28:23;;;;;;;7.40;4.40;;;;;;;;;;5064777;28;20176;-52
2023/03/03 09:30:49;;;;;;;5.43;3.80;;;;;;;;;;5059205;28;20233;-52
2023/03/03 09:33:38;;;;;;;5.82;4.30;;;;;;;;;;5064023;28;20180;-52
2023/03/03 09:36:22;;;;;;;6.68;4.22;;;;;;;;;;5064645;28;20219;-51
2023/03/03 09:38:48;;;;;;;5.18;3.70;;;;;;;;;;5054200;28;20279;-51
2023/03/03 09:41:35;;;;;;;5.28;3.70;;;;;;;;;;5061937;28;20597;-51
2023/03/03 09:44:15;;;;;;;5.22;4.25;;;;;;;;;;5055679;28;20573;-52
2023/03/03 09:46:41;;;;;;;5.70;4.22;;;;;;;;;;5049744;28;20272;-52
2023/03/03 09:49:15;;;;;;;5.07;4.05;;;;;;;;;;5057705;28;20253;-51
2023/03/03 09:51:40;;;;;;;4.97;4.30;;;;;;;;;;5047260;28;20186;-52
2023/03/03 09:54:13;;;;;;;5.57;4.32;;;;;;;;;;5056797;28;20179;-51
2023/03/03 09:56:46;;;;;;;6.63;4.82;;;;;;;;;;5055014;28;20187;-51
2023/03/03 09:59:26;;;;;;;4.43;3.65;;;;;;;;;;5055080;28;20190;-51
2023/03/03 10:02:00;;;;;;;5.80;4.13;;;;;;;;;;5051328;28;20565;-52
2023/03/03 10:04:38;;;;;;;6.28;4.55;;;;;;;;;;5057388;28;20194;-51
2023/03/03 10:07:33;;;;;;;5.45;3.83;;;;;;;;;;5057778;28;20187;-51
2023/03/03 10:10:17;;;;;;;5.15;3.83;;;;;;;;;;5037264;28;20191;-51
2023/03/03 10:13:02;;;;;;;5.93;4.22;;;;;;;;;;5042544;28;20182;-51
2023/03/03 10:15:32;;;;;;;4.70;4.03;;;;;;;;;;5060080;28;20184;-52
2023/03/03 10:18:03;;;;;;;5.38;4.43;;;;;;;;;;5058136;28;20433;-52
2023/03/03 10:20:29;;;;;;;4.28;3.80;;;;;;;;;;5052089;28;20266;-52
2023/03/03 10:22:56;;;;;;;4.70;4.18;;;;;;;;;;5058567;28;20294;-52
2023/03/03 10:25:25;;;;;;;6.57;4.47;;;;;;;;;;5057368;28;20213;-51
2023/03/03 10:27:56;;;;;;;6.78;4.65;;;;;;;;;;5055169;28;20301;-52
2023/03/03 10:30:31;;;;;;;5.13;4.05;;;;;;;;;;5050610;28;20208;-51
2023/03/03 10:33:05;;;;;;;5.32;4.22;;;;;;;;;;5048831;28;20249;-51
2023/03/03 10:35:37;;;;;;;5.75;4.40;;;;;;;;;;5045401;28;20186;-51
2023/03/03 10:38:09;;;;;;;5.45;4.22;;;;;;;;;;5052803;28;20190;-51
2023/03/03 10:40:39;;;;;;;5.18;4.15;;;;;;;;;;5055691;28;20181;-52
2023/03/03 10:43:18;;;;;;;5.13;4.28;;;;;;;;;;5057209;28;20638;-51
2023/03/03 10:46:04;;;;;;;5.70;4.53;;;;;;;;;;5055344;28;20175;-51
2023/03/03 10:48:39;;;;;;;6.05;4.10;;;;;;;;;;5036939;28;20187;-51
2023/03/03 10:51:18;;;;;;;4.50;3.75;;;;;;;;;;5046265;28;20182;-51
2023/03/03 10:54:03;;;;;;;6.22;4.50;;;;;;;;;;5045878;28;20772;-51
2023/03/03 10:56:29;;;;;;;7.15;4.35;;;;;;;;;;5047868;28;20241;-52
2023/03/03 10:59:02;;;;;;;5.40;4.40;;;;;;;;;;5046976;28;20476;-51
2023/03/03 11:01:39;;;;;;;5.80;4.40;;;;;;;;;;5053663;28;20213;-51
2023/03/03 11:04:24;;;;;;;4.93;4.05;;;;;;;;;;5050328;28;20173;-52
2023/03/03 11:06:50;;;;;;;4.70;4.20;;;;;;;;;;5044734;28;20176;-52
2023/03/03 11:09:21;;;;;;;5.60;4.22;;;;;;;;;;5044220;28;20194;-52
2023/03/03 11:12:07;;;;;;;5.13;4.00;;;;;;;;;;5059113;28;20522;-52
2023/03/03 11:14:40;;;;;;;4.88;3.90;;;;;;;;;;5047791;28;20191;-52
2023/03/03 11:17:25;;;;;;;4.72;4.22;;;;;;;;;;5047892;28;20186;-51
2023/03/03 11:20:08;;;;;;;4.75;4.13;;;;;;;;;;5042549;28;20214;-52
2023/03/03 11:22:46;;;;;;;5.88;4.38;;;;;;;;;;5051541;28;20202;-51
2023/03/03 11:25:17;;;;;;;5.35;3.88;;;;;;;;;;5053182;28;20226;-51
2023/03/03 11:27:42;;;;;;;4.78;3.70;;;;;;;;;;5048396;28;20542;-52
2023/03/03 11:30:17;;;;;;;5.32;4.40;;;;;;;;;;5042920;28;20242;-51
2023/03/03 11:33:03;;;;;;;5.93;4.25;;;;;;;;;;5045258;28;20205;-52
2023/03/03 11:35:40;;;;;;;3.92;3.53;;;;;;;;;;5049600;28;20187;-52
2023/03/03 11:38:19;;;;;;;4.68;3.58;;;;;;;;;;5051048;28;20182;-51
2023/03/03 11:40:54;;;;;;;4.20;3.80;;;;;;;;;;5040743;28;20186;-52
2023/03/03 11:43:37;;;;;;;4.47;3.60;;;;;;;;;;5049556;28;20233;-51
2023/03/03 11:46:06;;;;;;;4.80;3.78;;;;;;;;;;5060423;28;20588;-52
2023/03/03 11:48:36;;;;;;;4.43;3.40;;;;;;;;;;5070182;28;20257;-51
2023/03/03 11:51:05;;;;;;;4.70;3.80;;;;;;;;;;5057990;28;20183;-51
2023/03/03 11:53:34;;;;;;;3.70;3.15;;;;;;;;;;5048995;28;20767;-51
2023/03/03 11:56:06;;;;;;;4.20;3.53;;;;;;;;;;5058013;28;20209;-51
2023/03/03 11:58:36;;;;;;;4.38;3.97;;;;;;;;;;5054831;28;20205;-52
2023/03/03 12:01:18;;;;;;;3.75;3.45;;;;;;;;;;5054649;28;20178;-51
2023/03/03 12:03:49;;;;;;;4.20;3.72;;;;;;;;;;5052006;28;20193;-51
2023/03/03 12:06:29;;;;;;;3.58;3.28;;;;;;;;;;5058455;28;20222;-52
2023/03/03 12:09:13;;;;;;;4.03;3.55;;;;;;;;;;5045689;28;20187;-52
2023/03/03 12:11:56;;;;;;;4.28;3.88;;;;;;;;;;5072361;28;20175;-52
2023/03/03 12:14:41;;;;;;;4.22;3.50;;;;;;;;;;5058194;28;20239;-52
2023/03/03 12:17:26;;;;;;;3.95;3.53;;;;;;;;;;5071512;28;20179;-51
2023/03/03 12:20:00;;;;;;;4.38;3.83;;;;;;;;;;5053448;28;20209;-52
2023/03/03 12:22:39;;;;;;;4.00;3.45;;;;;;;;;;5075341;28;20206;-51
2023/03/03 12:25:23;;;;;;;4.00;3.47;;;;;;;;;;5078127;28;20450;-51
2023/03/03 12:27:52;;;;;;;4.10;3.38;;;;;;;;;;5073952;28;20187;-52
2023/03/03 12:30:26;;;;;;;5.32;4.22;;;;;;;;;;5059102;28;20204;-52
2023/03/03 12:33:15;;;;;;;4.97;3.50;;;;;;;;;;5041761;28;20461;-52
2023/03/03 12:35:55;;;;;;;4.25;3.45;;;;;;;;;;5041291;28;20279;-52
2023/03/03 12:38:44;;;;;;;3.97;3.58;;;;;;;;;;5046219;28;20190;-52
2023/03/03 12:41:19;;;;;;;4.25;3.55;;;;;;;;;;5045913;28;20196;-51
2023/03/03 12:43:51;;;;;;;3.70;3.30;;;;;;;;;;5052058;28;20421;-52
2023/03/03 12:46:40;;;;;;;3.88;3.47;;;;;;;;;;5056948;28;20249;-52
2023/03/03 12:49:06;;;;;;;3.92;3.50;;;;;;;;;;5058612;28;20183;-52
2023/03/03 12:51:44;;;;;;;4.32;3.70;;;;;;;;;;5069073;28;20189;-52
2023/03/03 12:54:25;;;;;;;3.80;3.25;;;;;;;;;;5062054;28;20214;-52
2023/03/03 12:57:06;;;;;;;4.60;3.47;;;;;;;;;;5043451;28;20511;-52
2023/03/03 12:59:55;;;;;;;5.07;4.05;;;;;;;;;;5037857;28;20480;-52
2023/03/03 13:02:43;;;;;;;4.57;3.50;;;;;;;;;;5051087;28;20229;-52
2023/03/03 13:05:09;;;;;;;3.97;3.50;;;;;;;;;;5038181;28;20951;-52
2023/03/03 13:07:45;;;;;;;3.58;3.20;;;;;;;;;;5066256;28;20652;-51
2023/03/03 13:10:19;;;;;;;6.40;3.35;;;;;;;;;;5047190;28;20179;-53
2023/03/03 13:13:07;;;;;;;4.25;3.65;;;;;;;;;;5061269;28;20193;-46
2023/03/03 13:15:43;;;;;;;5.28;3.38;;;;;;;;;;5075106;28;20190;-46
2023/03/03 13:18:30;;;;;;;6.25;4.07;;;;;;;;;;5070268;28;20538;-46
2023/03/03 13:21:01;;;;;;;10.48;4.05;;;;;;;;;;5063022;28;20558;-46
2023/03/03 13:23:45;;;;;;;7.00;4.25;;;;;;;;;;5060334;28;20213;-46
2023/03/03 13:26:18;;;;;;;9.00;4.25;;;;;;;;;;5049300;28;20648;-46
2023/03/03 13:29:03;;;;;;;7.00;3.85;;;;;;;;;;5049338;28;20222;-46
2023/03/03 13:31:32;;;;;;;6.78;3.65;;;;;;;;;;5043010;28;20497;-45
2023/03/03 13:34:00;;;;;;;7.78;3.53;;;;;;;;;;5048084;28;20207;-46
2023/03/03 13:36:40;;;;;;;8.77;4.10;;;;;;;;;;5041672;28;20183;-46
2023/03/03 13:39:13;;;;;;;7.40;3.65;;;;;;;;;;5048943;28;20188;-46
2023/03/03 13:41:55;;;;;;;9.70;3.88;;;;;;;;;;5067292;28;20207;-46
2023/03/03 13:44:29;;;;;;;5.60;3.78;;;;;;;;;;5036705;28;20191;-46
2023/03/03 13:47:05;;;;;;;7.93;4.28;;;;;;;;;;5047791;28;20199;-46
2023/03/03 13:49:50;;;;;;;7.55;4.53;;;;;;;;;;5048702;28;20171;-46
2023/03/03 13:52:23;;;;;;;6.22;4.25;;;;;;;;;;5058849;28;20170;-46
2023/03/03 13:54:54;;;;;;;11.00;4.22;;;;;;;;;;5042983;28;20240;-46
2023/03/03 13:57:38;;;;;;;6.03;4.25;;;;;;;;;;5060903;28;20184;-46
2023/03/03 14:00:23;;;;;;;5.93;4.45;;;;;;;;;;5048522;28;20263;-46
2023/03/03 14:02:56;;;;;;;6.20;4.65;;;;;;;;;;5052972;28;20206;-46
2023/03/03 14:05:22;;;;;;;6.57;4.47;;;;;;;;;;5045264;28;20182;-46
2023/03/03 14:07:48;;;;;;;8.25;5.05;;;;;;;;;;5060691;28;20198;-46
2023/03/03 14:10:20;;;;;;;9.77;5.18;;;;;;;;;;5060524;28;20221;-46
2023/03/03 14:12:58;;;;;;;7.35;4.45;;;;;;;;;;5057332;28;20278;-46
2023/03/03 14:15:27;;;;;;;8.77;5.10;;;;;;;;;;5051251;28;20226;-46
2023/03/03 14:17:57;;;;;;;6.32;4.63;;;;;;;;;;5057298;28;20199;-46
2023/03/03 14:20:29;;;;;;;7.57;4.70;;;;;;;;;;5049073;28;20183;-46
2023/03/03 14:22:55;;;;;;;6.95;4.53;;;;;;;;;;5061457;28;20202;-46
2023/03/03 14:25:21;;;;;;;11.70;5.28;;;;;;;;;;5050939;28;20281;-46
2023/03/03 14:27:47;;;;;;;8.02;4.97;;;;;;;;;;5056724;28;20523;-46
2023/03/03 14:30:33;;;;;;;7.32;4.88;;;;;;;;;;5049636;28;20207;-46
2023/03/03 14:33:01;;;;;;;8.65;5.18;;;;;;;;;;5058974;28;20183;-46
2023/03/03 14:35:29;;;;;;;7.13;5.40;;;;;;;;;;5049338;28;20191;-46
2023/03/03 14:38:00;;;;;;;8.35;4.97;;;;;;;;;;5053245;28;20184;-46
2023/03/03 14:40:31;;;;;;;7.32;5.15;;;;;;;;;;5056225;28;20178;-46
2023/03/03 14:42:58;;;;;;;6.75;5.30;;;;;;;;;;5055011;28;20236;-46
2023/03/03 14:45:35;;;;;;;7.93;5.50;;;;;;;;;;5063026;28;20273;-46
2023/03/03 14:48:09;;;;;;;9.30;5.97;;;;;;;;;;5061658;28;20175;-46
2023/03/03 14:50:36;;;;;;;7.97;6.38;;;;;;;;;;5057996;28;20229;-47
2023/03/03 14:53:07;;;;;;;6.65;5.82;;;;;;;;;;5046893;28;20818;-47
2023/03/03 14:55:36;;;;;;;10.23;5.95;;;;;;;;;;5042402;28;20431;-47
2023/03/03 14:58:03;;;;;;;12.30;9.38;;;;;;;;;;5050842;28;20554;-46
2023/03/03 15:00:31;;;;;;;13.63;9.30;;;;;;;;;;5055022;28;20234;-46